Islip, NY (11751)

1:52 AM EST on February 21, 2018 (GMT -0500)
East Islip | | Change Station
Active Advisory: Dense Fog Advisory

Elev 20 ft 40.73 °N, 73.19 °W | Updated 7 seconds ago

Fog
Fog
45.5 °F
Feels Like 46 °F
N
1.1
Wind Variable Wind from WSW
Gusts 2.5 mph

Today
High -- | Low -- °F
--% Chance of Precip.
Yesterday
High -- | Low -- °F
Precip. -- in
Pressure 30.33 in
Visibility 0.5 miles
Clouds
Windchill 46 °F
Dew Point 45 °F
Humidity 99%
Rainfall 0.00 in
Snow Depth Not available.
6:38 AM 5:34 PM
Waxing Crescent, 28% visible
SPECI KISP 210638Z AUTO 21008KT 1/2SM R06/2000V2200FT FG VV002 09/09 A3033 RMK AO2 T00940094
Pressure 30.33 in
Visibility 0.5 miles
Clouds
Windchill 46 °F
Dew Point 45 °F
Humidity 99%
Rainfall 0.00 in
Snow Depth Not available.
6:38 AM 5:34 PM
Waxing Crescent, 28% visible
SPECI KISP 210638Z AUTO 21008KT 1/2SM R06/2000V2200FT FG VV002 09/09 A3033 RMK AO2 T00940094

Get Your Daily Forecast Email!

Thanks for signing up!

Be on the lookout for a verification email in your inbox.

You'll start receiving severe weather alerts in your inbox..

×

10-Day Weather Forecast

Almanac

Astronomy

Feb. 21, 2018 Rise Set
Actual Time
Civil Twilight
Nautical Twilight
Astronomical Twilight
Moon
Length of Visible Light
Length of Day
Tomorrow will be .
, % of the Moon is Illuminated

Today's Extremes

State Highs State Lows

Community

WunderPhotos

Category 6

Welcome to Category 6. This is the collective home for Weather Underground's featured writeups by Dr. Jeff Masters (right), Bob Henson (left), Chris Burt, and other regular contributors.

Nearby

Air Quality

  Air Quality AQ Index Pollutant
Not available.

Snow Depth

Station Depth Elevation

Earthquake Activity

City Distance Mag. Time & Date
Minimum magnitude displayed is 2.5.

Coastal Water Temperatures

Place Temperature

Stations

Nearby Weather Stations

Station Location Temp. Windchill Dew Point Humidity Wind Precip. Elev Updated Type
                   

Watches & Warnings

Dense Fog Advisory
Issued: 11:38 PM EST Feb. 20, 2018 – National Weather Service

... Dense fog advisory remains in effect until 10 am EST
Wednesday...

* visibilities... one quarter mile or less at times.

* Timing... visibilities will continue to lower tonight and
remain one quarter mile or less at times until around 10 am on
Wednesday.

* Impacts... limited visibilities will make travel very difficult.

Precautionary/preparedness actions...

A dense fog advisory means visibilities will frequently be
reduced to one quarter mile or less. If driving... slow down... use
your low beam headlights... and leave plenty of distance ahead of
you in case a sudden stop is needed.

A dense fog advisory means visibilities will frequently be
reduced to one quarter mile or less. If driving, slow down, use
your fog lamps or low beam headlights, and leave plenty of
distance ahead of you in case a sudden stop is needed.